<?xml version="1.0" encoding="UTF-8" standalone="no" ?>
<gpx xmlns="http://www.topografix.com/GPX/1/1" xmlns:xsi="http://www.w3.org/2001/XMLSchema-instance" xsi:schemaLocation="http://www.topografix.com/GPX/1/1 http://www.topografix.com/GPX/1/1/gpx.xsd" version="1.1" creator="VisuGPX - https://www.visugpx.com">
  <metadata>
    <name>secteur Saverne - Dabo - Petite Pierre</name>
  </metadata>
  <trk>
    <name><![CDATA[secteur Saverne - Dabo - Petite Pierre_8]]></name>
    <trkseg>
      <trkpt lat="48.64501" lon="7.1467">
        <ele>390.9</ele>
        <time>2020-08-12T07:46:56Z</time>
      </trkpt>
      <trkpt lat="48.64501" lon="7.1467">
        <ele>390.9</ele>
        <time>2020-08-12T07:46:56Z</time>
      </trkpt>
      <trkpt lat="48.64501" lon="7.1467">
        <ele>390.9</ele>
        <time>2020-08-12T07:46:56Z</time>
      </trkpt>
      <trkpt lat="48.64501" lon="7.1467">
        <ele>390.9</ele>
        <time>2020-08-12T07:46:56Z</time>
      </trkpt>
      <trkpt lat="48.64501" lon="7.1467">
        <ele>390.9</ele>
        <time>2020-08-12T07:46:56Z</time>
      </trkpt>
      <trkpt lat="48.64501" lon="7.1467">
        <ele>390.9</ele>
        <time>2020-08-12T07:46:56Z</time>
      </trkpt>
      <trkpt lat="48.64501" lon="7.1467">
        <ele>390.9</ele>
        <time>2020-08-12T07:46:56Z</time>
      </trkpt>
      <trkpt lat="48.64501" lon="7.1467">
        <ele>390.9</ele>
        <time>2020-08-12T07:46:56Z</time>
      </trkpt>
      <trkpt lat="48.64507" lon="7.14673">
        <ele>390.7</ele>
        <time>2020-08-12T07:46:58Z</time>
      </trkpt>
      <trkpt lat="48.64514" lon="7.14676">
        <ele>390.5</ele>
        <time>2020-08-12T07:47:00Z</time>
      </trkpt>
      <trkpt lat="48.64522" lon="7.14679">
        <ele>390.3</ele>
        <time>2020-08-12T07:47:02Z</time>
      </trkpt>
      <trkpt lat="48.6453" lon="7.14682">
        <ele>390</ele>
        <time>2020-08-12T07:47:04Z</time>
      </trkpt>
      <trkpt lat="48.6454" lon="7.14684">
        <ele>389.5</ele>
        <time>2020-08-12T07:47:06Z</time>
      </trkpt>
      <trkpt lat="48.64549" lon="7.14686">
        <ele>389.3</ele>
        <time>2020-08-12T07:47:08Z</time>
      </trkpt>
      <trkpt lat="48.6456" lon="7.1469">
        <ele>388.4</ele>
        <time>2020-08-12T07:47:10Z</time>
      </trkpt>
      <trkpt lat="48.64571" lon="7.14693">
        <ele>388.3</ele>
        <time>2020-08-12T07:47:12Z</time>
      </trkpt>
      <trkpt lat="48.6458" lon="7.14692">
        <ele>387.5</ele>
        <time>2020-08-12T07:47:14Z</time>
      </trkpt>
      <trkpt lat="48.64585" lon="7.14691">
        <ele>386.5</ele>
        <time>2020-08-12T07:47:17Z</time>
      </trkpt>
      <trkpt lat="48.6459" lon="7.14689">
        <ele>385.1</ele>
        <time>2020-08-12T07:47:31Z</time>
      </trkpt>
      <trkpt lat="48.64594" lon="7.14684">
        <ele>385.2</ele>
        <time>2020-08-12T07:47:34Z</time>
      </trkpt>
      <trkpt lat="48.64597" lon="7.14678">
        <ele>384.9</ele>
        <time>2020-08-12T07:47:36Z</time>
      </trkpt>
      <trkpt lat="48.64599" lon="7.14671">
        <ele>384.3</ele>
        <time>2020-08-12T07:47:38Z</time>
      </trkpt>
      <trkpt lat="48.64602" lon="7.14662">
        <ele>384.1</ele>
        <time>2020-08-12T07:47:41Z</time>
      </trkpt>
      <trkpt lat="48.64605" lon="7.14655">
        <ele>383.9</ele>
        <time>2020-08-12T07:47:44Z</time>
      </trkpt>
      <trkpt lat="48.64607" lon="7.14648">
        <ele>383.2</ele>
        <time>2020-08-12T07:47:47Z</time>
      </trkpt>
      <trkpt lat="48.64612" lon="7.14641">
        <ele>381.7</ele>
        <time>2020-08-12T07:47:50Z</time>
      </trkpt>
      <trkpt lat="48.64618" lon="7.14638">
        <ele>380.8</ele>
        <time>2020-08-12T07:47:52Z</time>
      </trkpt>
      <trkpt lat="48.64626" lon="7.14636">
        <ele>380</ele>
        <time>2020-08-12T07:47:54Z</time>
      </trkpt>
      <trkpt lat="48.64635" lon="7.14634">
        <ele>379.8</ele>
        <time>2020-08-12T07:47:56Z</time>
      </trkpt>
      <trkpt lat="48.64643" lon="7.14631">
        <ele>380.2</ele>
        <time>2020-08-12T07:47:58Z</time>
      </trkpt>
      <trkpt lat="48.6465" lon="7.14627">
        <ele>381</ele>
        <time>2020-08-12T07:48:00Z</time>
      </trkpt>
      <trkpt lat="48.64655" lon="7.1462">
        <ele>381.6</ele>
        <time>2020-08-12T07:48:02Z</time>
      </trkpt>
      <trkpt lat="48.64658" lon="7.14611">
        <ele>381.5</ele>
        <time>2020-08-12T07:48:04Z</time>
      </trkpt>
      <trkpt lat="48.64659" lon="7.14602">
        <ele>381.5</ele>
        <time>2020-08-12T07:48:06Z</time>
      </trkpt>
      <trkpt lat="48.64659" lon="7.14594">
        <ele>381.7</ele>
        <time>2020-08-12T07:48:08Z</time>
      </trkpt>
      <trkpt lat="48.64658" lon="7.14586">
        <ele>382.2</ele>
        <time>2020-08-12T07:48:10Z</time>
      </trkpt>
      <trkpt lat="48.64656" lon="7.14577">
        <ele>382.8</ele>
        <time>2020-08-12T07:48:12Z</time>
      </trkpt>
      <trkpt lat="48.64655" lon="7.14568">
        <ele>384.5</ele>
        <time>2020-08-12T07:48:14Z</time>
      </trkpt>
      <trkpt lat="48.64654" lon="7.1456">
        <ele>385.6</ele>
        <time>2020-08-12T07:48:16Z</time>
      </trkpt>
      <trkpt lat="48.64654" lon="7.14551">
        <ele>386.4</ele>
        <time>2020-08-12T07:48:18Z</time>
      </trkpt>
      <trkpt lat="48.64655" lon="7.14541">
        <ele>386.9</ele>
        <time>2020-08-12T07:48:20Z</time>
      </trkpt>
      <trkpt lat="48.64654" lon="7.14531">
        <ele>387.1</ele>
        <time>2020-08-12T07:48:22Z</time>
      </trkpt>
      <trkpt lat="48.64654" lon="7.1452">
        <ele>387.4</ele>
        <time>2020-08-12T07:48:24Z</time>
      </trkpt>
      <trkpt lat="48.64653" lon="7.14508">
        <ele>387.3</ele>
        <time>2020-08-12T07:48:26Z</time>
      </trkpt>
      <trkpt lat="48.64653" lon="7.14497">
        <ele>387.6</ele>
        <time>2020-08-12T07:48:28Z</time>
      </trkpt>
      <trkpt lat="48.64653" lon="7.14486">
        <ele>387.3</ele>
        <time>2020-08-12T07:48:30Z</time>
      </trkpt>
      <trkpt lat="48.64652" lon="7.14475">
        <ele>387.2</ele>
        <time>2020-08-12T07:48:32Z</time>
      </trkpt>
      <trkpt lat="48.64651" lon="7.14465">
        <ele>387.2</ele>
        <time>2020-08-12T07:48:34Z</time>
      </trkpt>
      <trkpt lat="48.64652" lon="7.14453">
        <ele>387.4</ele>
        <time>2020-08-12T07:48:36Z</time>
      </trkpt>
      <trkpt lat="48.64652" lon="7.14442">
        <ele>388.5</ele>
        <time>2020-08-12T07:48:38Z</time>
      </trkpt>
      <trkpt lat="48.64651" lon="7.14431">
        <ele>389.3</ele>
        <time>2020-08-12T07:48:40Z</time>
      </trkpt>
      <trkpt lat="48.64649" lon="7.1442">
        <ele>390.1</ele>
        <time>2020-08-12T07:48:42Z</time>
      </trkpt>
      <trkpt lat="48.64648" lon="7.14408">
        <ele>390.8</ele>
        <time>2020-08-12T07:48:44Z</time>
      </trkpt>
      <trkpt lat="48.64647" lon="7.14396">
        <ele>391.6</ele>
        <time>2020-08-12T07:48:46Z</time>
      </trkpt>
      <trkpt lat="48.64647" lon="7.14384">
        <ele>391.7</ele>
        <time>2020-08-12T07:48:48Z</time>
      </trkpt>
      <trkpt lat="48.64646" lon="7.14372">
        <ele>392.1</ele>
        <time>2020-08-12T07:48:50Z</time>
      </trkpt>
      <trkpt lat="48.64645" lon="7.1436">
        <ele>392.6</ele>
        <time>2020-08-12T07:48:52Z</time>
      </trkpt>
      <trkpt lat="48.64644" lon="7.1435">
        <ele>393.1</ele>
        <time>2020-08-12T07:48:54Z</time>
      </trkpt>
      <trkpt lat="48.64643" lon="7.14341">
        <ele>394.5</ele>
        <time>2020-08-12T07:48:56Z</time>
      </trkpt>
      <trkpt lat="48.64641" lon="7.1433">
        <ele>395.3</ele>
        <time>2020-08-12T07:48:58Z</time>
      </trkpt>
      <trkpt lat="48.6464" lon="7.1432">
        <ele>395.4</ele>
        <time>2020-08-12T07:49:00Z</time>
      </trkpt>
      <trkpt lat="48.6464" lon="7.14309">
        <ele>395.5</ele>
        <time>2020-08-12T07:49:02Z</time>
      </trkpt>
      <trkpt lat="48.6464" lon="7.14298">
        <ele>395.7</ele>
        <time>2020-08-12T07:49:04Z</time>
      </trkpt>
      <trkpt lat="48.64639" lon="7.14287">
        <ele>396.8</ele>
        <time>2020-08-12T07:49:06Z</time>
      </trkpt>
      <trkpt lat="48.64638" lon="7.14275">
        <ele>397.3</ele>
        <time>2020-08-12T07:49:08Z</time>
      </trkpt>
      <trkpt lat="48.64637" lon="7.14263">
        <ele>397.7</ele>
        <time>2020-08-12T07:49:10Z</time>
      </trkpt>
      <trkpt lat="48.64637" lon="7.14253">
        <ele>398.5</ele>
        <time>2020-08-12T07:49:12Z</time>
      </trkpt>
      <trkpt lat="48.64635" lon="7.14242">
        <ele>398.4</ele>
        <time>2020-08-12T07:49:14Z</time>
      </trkpt>
      <trkpt lat="48.64634" lon="7.14233">
        <ele>399</ele>
        <time>2020-08-12T07:49:16Z</time>
      </trkpt>
      <trkpt lat="48.64633" lon="7.14225">
        <ele>398.8</ele>
        <time>2020-08-12T07:49:18Z</time>
      </trkpt>
      <trkpt lat="48.64634" lon="7.14216">
        <ele>399.3</ele>
        <time>2020-08-12T07:49:20Z</time>
      </trkpt>
      <trkpt lat="48.64633" lon="7.14206">
        <ele>399.6</ele>
        <time>2020-08-12T07:49:22Z</time>
      </trkpt>
      <trkpt lat="48.64633" lon="7.14196">
        <ele>399.6</ele>
        <time>2020-08-12T07:49:24Z</time>
      </trkpt>
      <trkpt lat="48.64633" lon="7.14185">
        <ele>398.4</ele>
        <time>2020-08-12T07:49:26Z</time>
      </trkpt>
      <trkpt lat="48.64633" lon="7.14174">
        <ele>398.4</ele>
        <time>2020-08-12T07:49:28Z</time>
      </trkpt>
      <trkpt lat="48.64634" lon="7.14164">
        <ele>398.3</ele>
        <time>2020-08-12T07:49:30Z</time>
      </trkpt>
      <trkpt lat="48.64637" lon="7.14155">
        <ele>397.8</ele>
        <time>2020-08-12T07:49:32Z</time>
      </trkpt>
      <trkpt lat="48.64641" lon="7.14147">
        <ele>397.6</ele>
        <time>2020-08-12T07:49:34Z</time>
      </trkpt>
      <trkpt lat="48.64646" lon="7.1414">
        <ele>396.8</ele>
        <time>2020-08-12T07:49:36Z</time>
      </trkpt>
      <trkpt lat="48.64651" lon="7.14135">
        <ele>396.3</ele>
        <time>2020-08-12T07:49:38Z</time>
      </trkpt>
      <trkpt lat="48.64657" lon="7.14132">
        <ele>395.7</ele>
        <time>2020-08-12T07:49:40Z</time>
      </trkpt>
      <trkpt lat="48.64663" lon="7.14128">
        <ele>395.5</ele>
        <time>2020-08-12T07:49:42Z</time>
      </trkpt>
      <trkpt lat="48.64669" lon="7.14124">
        <ele>394.6</ele>
        <time>2020-08-12T07:49:44Z</time>
      </trkpt>
      <trkpt lat="48.64676" lon="7.14119">
        <ele>394.3</ele>
        <time>2020-08-12T07:49:46Z</time>
      </trkpt>
      <trkpt lat="48.64683" lon="7.14116">
        <ele>394.8</ele>
        <time>2020-08-12T07:49:48Z</time>
      </trkpt>
      <trkpt lat="48.64691" lon="7.14113">
        <ele>395</ele>
        <time>2020-08-12T07:49:50Z</time>
      </trkpt>
      <trkpt lat="48.64699" lon="7.14112">
        <ele>395.4</ele>
        <time>2020-08-12T07:49:52Z</time>
      </trkpt>
      <trkpt lat="48.64706" lon="7.14111">
        <ele>395.8</ele>
        <time>2020-08-12T07:49:54Z</time>
      </trkpt>
      <trkpt lat="48.64714" lon="7.14112">
        <ele>396.3</ele>
        <time>2020-08-12T07:49:56Z</time>
      </trkpt>
      <trkpt lat="48.64722" lon="7.14112">
        <ele>396.6</ele>
        <time>2020-08-12T07:49:58Z</time>
      </trkpt>
      <trkpt lat="48.64729" lon="7.14113">
        <ele>396.9</ele>
        <time>2020-08-12T07:50:00Z</time>
      </trkpt>
      <trkpt lat="48.64735" lon="7.14113">
        <ele>397.7</ele>
        <time>2020-08-12T07:50:02Z</time>
      </trkpt>
      <trkpt lat="48.64736" lon="7.14106">
        <ele>399.1</ele>
        <time>2020-08-12T07:50:05Z</time>
      </trkpt>
      <trkpt lat="48.64732" lon="7.141">
        <ele>400</ele>
        <time>2020-08-12T07:50:07Z</time>
      </trkpt>
      <trkpt lat="48.64727" lon="7.14095">
        <ele>400.7</ele>
        <time>2020-08-12T07:50:09Z</time>
      </trkpt>
      <trkpt lat="48.64721" lon="7.1409">
        <ele>401.3</ele>
        <time>2020-08-12T07:50:11Z</time>
      </trkpt>
      <trkpt lat="48.64715" lon="7.14085">
        <ele>400.6</ele>
        <time>2020-08-12T07:50:13Z</time>
      </trkpt>
      <trkpt lat="48.64709" lon="7.14082">
        <ele>401</ele>
        <time>2020-08-12T07:50:15Z</time>
      </trkpt>
      <trkpt lat="48.64703" lon="7.14078">
        <ele>400.7</ele>
        <time>2020-08-12T07:50:17Z</time>
      </trkpt>
      <trkpt lat="48.64699" lon="7.14074">
        <ele>400.3</ele>
        <time>2020-08-12T07:50:19Z</time>
      </trkpt>
      <trkpt lat="48.64696" lon="7.14068">
        <ele>400.8</ele>
        <time>2020-08-12T07:50:26Z</time>
      </trkpt>
      <trkpt lat="48.64691" lon="7.14065">
        <ele>401.9</ele>
        <time>2020-08-12T07:50:30Z</time>
      </trkpt>
      <trkpt lat="48.64686" lon="7.14062">
        <ele>403.2</ele>
        <time>2020-08-12T07:50:34Z</time>
      </trkpt>
      <trkpt lat="48.64682" lon="7.14058">
        <ele>405</ele>
        <time>2020-08-12T07:50:38Z</time>
      </trkpt>
      <trkpt lat="48.64677" lon="7.14055">
        <ele>406.9</ele>
        <time>2020-08-12T07:50:43Z</time>
      </trkpt>
      <trkpt lat="48.64673" lon="7.14053">
        <ele>408.3</ele>
        <time>2020-08-12T07:50:47Z</time>
      </trkpt>
      <trkpt lat="48.64668" lon="7.14051">
        <ele>410.6</ele>
        <time>2020-08-12T07:50:52Z</time>
      </trkpt>
      <trkpt lat="48.64664" lon="7.14047">
        <ele>413.6</ele>
        <time>2020-08-12T07:50:57Z</time>
      </trkpt>
      <trkpt lat="48.64659" lon="7.14044">
        <ele>415.5</ele>
        <time>2020-08-12T07:51:03Z</time>
      </trkpt>
      <trkpt lat="48.64653" lon="7.14042">
        <ele>417.9</ele>
        <time>2020-08-12T07:51:08Z</time>
      </trkpt>
      <trkpt lat="48.64647" lon="7.14041">
        <ele>420.7</ele>
        <time>2020-08-12T07:51:12Z</time>
      </trkpt>
      <trkpt lat="48.64641" lon="7.1404">
        <ele>421.7</ele>
        <time>2020-08-12T07:51:16Z</time>
      </trkpt>
      <trkpt lat="48.64636" lon="7.14039">
        <ele>423</ele>
        <time>2020-08-12T07:51:20Z</time>
      </trkpt>
      <trkpt lat="48.64632" lon="7.14036">
        <ele>424.4</ele>
        <time>2020-08-12T07:51:24Z</time>
      </trkpt>
      <trkpt lat="48.64628" lon="7.14032">
        <ele>423</ele>
        <time>2020-08-12T07:51:29Z</time>
      </trkpt>
      <trkpt lat="48.64624" lon="7.14029">
        <ele>423.6</ele>
        <time>2020-08-12T07:51:33Z</time>
      </trkpt>
      <trkpt lat="48.6462" lon="7.14025">
        <ele>424.7</ele>
        <time>2020-08-12T07:51:37Z</time>
      </trkpt>
      <trkpt lat="48.64615" lon="7.14022">
        <ele>426.5</ele>
        <time>2020-08-12T07:51:41Z</time>
      </trkpt>
      <trkpt lat="48.64611" lon="7.1402">
        <ele>428.7</ele>
        <time>2020-08-12T07:51:46Z</time>
      </trkpt>
      <trkpt lat="48.64605" lon="7.14017">
        <ele>429.8</ele>
        <time>2020-08-12T07:51:52Z</time>
      </trkpt>
      <trkpt lat="48.64599" lon="7.14014">
        <ele>430.7</ele>
        <time>2020-08-12T07:51:55Z</time>
      </trkpt>
      <trkpt lat="48.64594" lon="7.14011">
        <ele>431.3</ele>
        <time>2020-08-12T07:51:57Z</time>
      </trkpt>
      <trkpt lat="48.64589" lon="7.14008">
        <ele>431.9</ele>
        <time>2020-08-12T07:51:59Z</time>
      </trkpt>
      <trkpt lat="48.64584" lon="7.14005">
        <ele>432.5</ele>
        <time>2020-08-12T07:52:01Z</time>
      </trkpt>
      <trkpt lat="48.64579" lon="7.14003">
        <ele>433.2</ele>
        <time>2020-08-12T07:52:03Z</time>
      </trkpt>
      <trkpt lat="48.64575" lon="7.14">
        <ele>433.2</ele>
        <time>2020-08-12T07:52:05Z</time>
      </trkpt>
      <trkpt lat="48.6457" lon="7.13996">
        <ele>433.7</ele>
        <time>2020-08-12T07:52:07Z</time>
      </trkpt>
      <trkpt lat="48.64566" lon="7.13992">
        <ele>433.9</ele>
        <time>2020-08-12T07:52:09Z</time>
      </trkpt>
      <trkpt lat="48.64562" lon="7.13989">
        <ele>434.5</ele>
        <time>2020-08-12T07:52:11Z</time>
      </trkpt>
      <trkpt lat="48.64557" lon="7.13984">
        <ele>435.4</ele>
        <time>2020-08-12T07:52:13Z</time>
      </trkpt>
      <trkpt lat="48.64552" lon="7.13979">
        <ele>435.9</ele>
        <time>2020-08-12T07:52:15Z</time>
      </trkpt>
      <trkpt lat="48.64546" lon="7.13974">
        <ele>436.6</ele>
        <time>2020-08-12T07:52:17Z</time>
      </trkpt>
      <trkpt lat="48.64541" lon="7.13968">
        <ele>437.1</ele>
        <time>2020-08-12T07:52:19Z</time>
      </trkpt>
      <trkpt lat="48.64536" lon="7.13963">
        <ele>437.2</ele>
        <time>2020-08-12T07:52:21Z</time>
      </trkpt>
      <trkpt lat="48.64531" lon="7.13957">
        <ele>437.5</ele>
        <time>2020-08-12T07:52:23Z</time>
      </trkpt>
      <trkpt lat="48.64526" lon="7.13952">
        <ele>437.7</ele>
        <time>2020-08-12T07:52:25Z</time>
      </trkpt>
      <trkpt lat="48.64522" lon="7.13946">
        <ele>437.9</ele>
        <time>2020-08-12T07:52:27Z</time>
      </trkpt>
      <trkpt lat="48.64518" lon="7.1394">
        <ele>437.9</ele>
        <time>2020-08-12T07:52:29Z</time>
      </trkpt>
      <trkpt lat="48.64516" lon="7.13934">
        <ele>438.8</ele>
        <time>2020-08-12T07:52:34Z</time>
      </trkpt>
      <trkpt lat="48.64515" lon="7.13927">
        <ele>440.4</ele>
        <time>2020-08-12T07:54:09Z</time>
      </trkpt>
      <trkpt lat="48.64514" lon="7.1392">
        <ele>440.7</ele>
        <time>2020-08-12T07:54:30Z</time>
      </trkpt>
      <trkpt lat="48.64512" lon="7.13913">
        <ele>439.4</ele>
        <time>2020-08-12T07:54:33Z</time>
      </trkpt>
      <trkpt lat="48.6451" lon="7.13905">
        <ele>437.7</ele>
        <time>2020-08-12T07:54:36Z</time>
      </trkpt>
      <trkpt lat="48.64507" lon="7.13899">
        <ele>437.2</ele>
        <time>2020-08-12T07:54:38Z</time>
      </trkpt>
    </trkseg>
  </trk>
</gpx>